Terminal Aerodrome Forecast
Issued by NWS

Home | Current Version | Previous Version | Text Only | Print | Product List | Glossary On
Versions: 1 2 3 4 5 6 7 8 9 10 11 12 13
000
FTUS46 KLOX 251700 RRA
TAFWJF
TAF
KWJF 251741Z 2518/2618 VRB05KT P6SM FEW080
     FM252100 24012G20KT P6SM BKN100
     FM260300 25012KT P6SM SCT150
     FM260600 26010KT P6SM SCT150
     FM261200 26012G23KT P6SM SKC=

USA.gov is the U.S. government's official web portal to all federal, state and local government web resources and services.